Historyczne dane pomiarowe

Dodano dane terminowe – wersja testowa.

Dane z okresu 1951-2019

Wersja bazy: 1.34 [2019-03-16, lista zmian], aktualizacja planowana na 2019-04-15

Dane meteo z obszaru Polski uzyskane na podstawie danych udostępnionych przez Instytut Meteorologii i Gospodarki Wodnej – Państwowy Instytut Badawczy.

 

Wybierz Datę:    

       

TemperaturaWilgotnośćWiatrCiśnienieOpadyŚniegCzas trwania zjawisk
 Stacja t tx tn tng RH VA  wxwx mslp ppp RRR   cm mm wxwxwxwxwxwxwx
1987-08-14 15.8 22.5 10.5- 80.0- 6.3 1.0---- 0.0------------
1987-08-13 12.1 16.9 4.3- 84.3- 5.3 3.0---- 0.0------------
1987-08-12 12.6 17.6 6.9- 79.5- 2.3 2.7---- 0.0------------
1987-08-11 12.8 17.6 11.5- 90.3- 8.0 4.0---- 0.9------------
1987-08-10 15.7 19.1 7.9- 85.3- 7.3 3.3---- 0.4------------
1987-08-09 16.0 24.0 7.9- 72.0- 3.7 2.7---- 0.0------------
1987-08-08 14.8 18.0 11.5- 81.8- 4.0 1.0---- 0.0------------
1987-08-07 13.1 19.1 6.9- 76.5- 3.7 2.0---- 0.0------------
1987-08-06 12.0 16.1 8.5- 84.5- 8.0 1.0---- 0.6------------
1987-08-05 12.7 18.6 7.9- 82.5- 8.0 1.0---- 0.0------------
1987-08-04 14.1 19.7 8.5- 92.3- 8.0 0.7---- 1.0------------
1987-08-03 14.5 18.6 11.0- 82.5- 3.0 0.0---- 0.0------------
1987-08-02 15.1 19.1 13.0- 82.0- 6.0 2.0---- 5.5------------
1987-08-01 15.6 21.0 7.4- 80.8- 5.7 0.7---- 6.2------------
1987-07-31 17.0 22.0 11.5- 86.8- 5.3 2.3---- 6.4------------
1987-07-30 16.1 23.0 8.5- 84.8- 0.0 0.0---- 0.0------------
1987-07-29 13.6 19.1 8.0- 86.3- 5.0 0.7---- 0.0------------
1987-07-28 14.0 17.6 11.0- 91.8- 8.0 2.3---- 20.8------------
1987-07-27 12.5 17.6 7.9- 82.8- 8.0 2.7---- 4.6------------
1987-07-26 15.4 18.6 11.5- 91.3- 7.3 2.7---- 9.8------------
1987-07-25 20.5 25.0 16.9- 84.5- 4.0 1.0---- 0.8------------
1987-07-24 21.9 26.5 16.9- 82.3- 6.3 1.3---- 2.2------------
1987-07-23 22.9 28.5 13.0- 74.8- 0.0 0.0---- 4.4------------
1987-07-22 20.7 26.5 15.4- 84.3- 5.3 1.0---- 0.0------------
1987-07-21 20.5 26.5 12.0- 78.3- 2.7 0.0---- 0.0------------
1987-07-20 22.2 26.8 18.9- 80.8- 1.3 3.0---- 0.0------------
1987-07-19 22.1 29.9 17.9- 88.8- 4.3 1.7---- 14.2------------
1987-07-18 22.5 29.9 15.0- 83.0- 3.3 0.7---- 1.2------------
1987-07-17 21.1 28.0 15.0- 81.5- 2.7 0.0---- 5.3------------
1987-07-16 18.5 27.6 3.8- 71.3- 1.0 0.0---- 0.0------------
1987-07-15 16.1 24.0 3.8- 73.8- 1.3 0.0---- 0.0------------
1987-07-14 15.8 21.5 8.5- 73.8- 0.3 1.0---- 0.0------------
1987-07-13 19.3 25.2 14.0- 72.8- 2.3 1.3---- 0.0------------
1987-07-12 21.4 28.9 11.5- 63.3- 3.3 2.3---- 1.7------------
1987-07-11 15.8 23.4 4.3- 68.3- 1.3 3.7---- 0.0------------
1987-07-10 15.5 19.6 11.0- 70.5- 4.0 3.3---- 0.0------------
1987-07-09 19.2 25.0 15.0- 82.5- 5.3 3.3---- 3.9------------
1987-07-08 20.2 28.9 10.0- 65.0- 0.0 1.7---- 0.0------------
1987-07-07 17.2 25.0 4.9- 70.0- 0.0 1.0---- 0.0------------
1987-07-06 16.9 22.6 4.9- 72.5- 0.0 0.0---- 0.0------------
1987-07-05 16.0 21.0 10.5- 83.8- 3.3 2.7---- 0.0------------
1987-07-04 19.2 23.0 12.5- 68.0- 7.3 0.0---- 0.0------------
1987-07-03 19.7 23.0 15.0- 76.3- 8.0 0.0---- 0.0------------
1987-07-02 21.5 27.5 16.9- 85.0- 8.0 0.0---- 0.0------------
1987-07-01 25.0 31.9 16.4- 73.5- 2.7 0.7---- 2.0------------
1987-06-30 22.6 29.4 12.5- 78.8- 3.0 0.0---- 0.0------------
1987-06-29 20.1 25.5 12.0- 75.5- 0.3 1.3---- 0.0------------
1987-06-28 19.1 25.5 10.0- 76.8- 5.3 2.7---- 0.0------------
1987-06-27 19.5 24.0 12.5- 76.5- 0.7 1.3---- 0.0------------
1987-06-26 15.2 24.0 4.8- 73.5- 2.3 2.3---- 0.0------------
1987-06-25 15.3 21.0 9.5- 77.5- 5.3 3.0---- 0.0------------
1987-06-24 16.6 22.0 9.5- 76.0- 2.3 1.3---- 4.1------------
1987-06-23 15.7 21.5 11.0- 87.5- 6.0 1.0---- 0.2------------
1987-06-22 16.3 22.1 10.5- 86.8- 4.7 1.7---- 0.0------------
1987-06-21 16.9 25.0 8.0- 71.0- 3.0 1.3---- 0.0------------
1987-06-20 15.1 22.1 4.8- 71.3- 0.0 0.0---- 0.0------------
1987-06-19 12.4 17.9 5.9- 75.5- 3.0 1.7---- 0.0------------
1987-06-18 10.9 18.1 1.8- 76.5- 5.0 0.0---- 1.6------------
1987-06-17 11.8 16.1 6.9- 77.8- 6.3 2.0---- 0.0------------
1987-06-16 17.5 23.6 12.0- 80.5- 2.0 4.7---- 0.5------------
439.7 ms

 

Źródłem pochodzenia danych jest Instytut Meteorologii i Gospodarki Wodnej – Państwowy Instytut Badawczy. Dane Instytutu Meteorologii i Gospodarki Wodnej – Państwowego Instytutu Badawczego zostały przetworzone.

Dane źródłowe można odnaleźć na stronie https://dane.imgw.pl